Terminal Aerodrome Forecast
Issued by NWS

Home | Current Version | Previous Version | Text Only | Print | Product List | Glossary On
Versions: 1 2 3 4 5 6 7 8 9 10 11 12 13 14 15 16 17 18
599
FTUS43 KJKL 270521
TAFSME
TAF
KSME 270521Z 2706/2806 VRB03KT P6SM SCT080
     FM270900 00000KT P6SM BKN070
     FM271500 20006KT P6SM -SHRA BKN050
     FM271800 21007KT P6SM -SHRA VCTS OVC050CB
     FM280000 18006KT P6SM -SHRA BKN050=

USA.gov is the U.S. government's official web portal to all federal, state and local government web resources and services.